createdAt,value
2023-03-10T00:01:21.482Z,8.80
2023-03-10T00:03:49.363Z,8.40
2023-03-10T00:06:18.967Z,9.20
2023-03-10T00:08:46.768Z,8.90
2023-03-10T00:11:15.005Z,8.80
2023-03-10T00:13:42.807Z,8.80
2023-03-10T00:16:24.196Z,8.80
2023-03-10T00:18:52.486Z,8.80
2023-03-10T00:21:23.018Z,8.80
2023-03-10T00:23:51.120Z,8.80
2023-03-10T00:26:20.156Z,8.80
2023-03-10T00:28:48.043Z,8.80
2023-03-10T00:31:18.314Z,8.80
2023-03-10T00:33:45.977Z,8.80
2023-03-10T00:36:15.159Z,8.80
2023-03-10T00:38:43.628Z,8.80
2023-03-10T00:41:13.883Z,8.80
2023-03-10T00:43:41.232Z,8.80
2023-03-10T00:46:08.853Z,7.80
2023-03-10T00:48:36.696Z,8.80
2023-03-10T00:51:05.118Z,8.80
2023-03-10T00:53:34.640Z,8.80
2023-03-10T00:56:08.176Z,8.80
2023-03-10T00:58:35.811Z,8.80
2023-03-10T01:01:05.047Z,8.80
2023-03-10T01:03:32.902Z,8.80
2023-03-10T01:06:00.186Z,8.80
2023-03-10T01:08:27.455Z,8.90
2023-03-10T01:10:54.802Z,8.80
2023-03-10T01:13:22.439Z,8.90
2023-03-10T01:15:50.977Z,8.90
2023-03-10T01:18:19.827Z,8.90
2023-03-10T01:20:48.317Z,9.10
2023-03-10T01:23:21.072Z,8.90
2023-03-10T01:25:49.655Z,8.90
2023-03-10T01:28:17.616Z,8.90
2023-03-10T01:30:45.562Z,8.90
2023-03-10T01:33:13.339Z,8.90
2023-03-10T01:35:41.179Z,8.90
2023-03-10T01:38:09.225Z,9.00
2023-03-10T01:40:38.232Z,9.00
2023-03-10T01:43:20.533Z,8.90
2023-03-10T01:45:47.784Z,8.90
2023-03-10T01:48:17.408Z,8.90
2023-03-10T01:50:47.741Z,8.90
2023-03-10T01:53:17.485Z,8.90
2023-03-10T01:55:50.586Z,8.90
2023-03-10T01:58:20.363Z,8.80
2023-03-10T02:00:48.126Z,8.80
2023-03-10T02:03:32.858Z,8.90
2023-03-10T02:06:12.080Z,8.80
2023-03-10T02:08:44.556Z,8.80
2023-03-10T02:11:13.315Z,8.80
2023-03-10T02:13:40.914Z,8.80
2023-03-10T02:16:08.518Z,8.80
2023-03-10T02:18:36.020Z,8.80
2023-03-10T02:21:19.443Z,8.80
2023-03-10T02:24:01.734Z,8.40
2023-03-10T02:26:49.272Z,8.80
2023-03-10T02:29:25.213Z,8.80
2023-03-10T02:31:54.128Z,8.80
2023-03-10T02:34:22.222Z,8.80
2023-03-10T02:36:49.642Z,8.30
2023-03-10T02:39:16.985Z,8.80
2023-03-10T02:41:46.879Z,8.80
2023-03-10T02:44:18.532Z,8.80
2023-03-10T02:46:46.169Z,8.80
2023-03-10T02:49:13.612Z,8.80
2023-03-10T02:51:44.686Z,8.80
2023-03-10T02:54:12.615Z,8.80
2023-03-10T02:56:40.878Z,8.90
2023-03-10T02:59:10.558Z,8.80
2023-03-10T03:01:38.185Z,8.80
2023-03-10T03:04:05.774Z,8.80
2023-03-10T03:06:33.112Z,8.80
2023-03-10T03:09:00.520Z,8.80
2023-03-10T03:11:27.909Z,8.80
2023-03-10T03:13:56.308Z,8.80
2023-03-10T03:16:23.885Z,8.70
2023-03-10T03:18:51.330Z,8.80
2023-03-10T03:21:18.713Z,8.80
2023-03-10T03:23:46.977Z,8.80
2023-03-10T03:26:21.071Z,8.80
2023-03-10T03:28:48.663Z,8.80
2023-03-10T03:31:18.990Z,8.80
2023-03-10T03:33:46.926Z,8.80
2023-03-10T03:36:14.699Z,8.80
2023-03-10T03:38:42.055Z,8.80
2023-03-10T03:41:10.136Z,8.80
2023-03-10T03:43:37.590Z,8.80
2023-03-10T03:46:05.205Z,8.80
2023-03-10T03:48:34.944Z,8.80
2023-03-10T03:51:03.067Z,8.90
2023-03-10T03:53:31.174Z,8.80
2023-03-10T03:55:58.603Z,8.90
2023-03-10T03:58:26.394Z,8.90
2023-03-10T04:00:53.760Z,8.90
2023-03-10T04:03:21.191Z,9.50
2023-03-10T04:05:48.629Z,9.00
2023-03-10T04:08:16.221Z,8.90
2023-03-10T04:10:49.888Z,8.80
2023-03-10T04:13:17.259Z,8.80
2023-03-10T04:15:44.773Z,8.90
2023-03-10T04:18:12.415Z,9.40
2023-03-10T04:20:39.741Z,8.90
2023-03-10T04:23:07.640Z,8.90
2023-03-10T04:25:36.366Z,8.90
2023-03-10T04:28:03.669Z,8.90
2023-03-10T04:30:31.086Z,8.90
2023-03-10T04:33:00.025Z,8.90
2023-03-10T04:35:28.141Z,9.00
2023-03-10T04:37:55.511Z,9.00
2023-03-10T04:40:22.818Z,9.00
2023-03-10T04:42:50.130Z,9.00
2023-03-10T04:45:17.493Z,9.00
2023-03-10T04:47:44.836Z,9.00
2023-03-10T04:50:12.893Z,9.00
2023-03-10T04:52:40.167Z,9.00
2023-03-10T04:55:08.278Z,9.00
2023-03-10T04:57:35.743Z,8.90
2023-03-10T05:00:05.851Z,9.00
2023-03-10T05:02:33.134Z,8.90
2023-03-10T05:05:01.639Z,8.90
2023-03-10T05:07:29.031Z,9.00
2023-03-10T05:09:56.484Z,8.90
2023-03-10T05:12:23.806Z,8.80
2023-03-10T05:14:51.099Z,8.70
2023-03-10T05:17:18.411Z,8.50
2023-03-10T05:19:46.070Z,7.70
2023-03-10T05:22:13.650Z,8.30
2023-03-10T05:24:40.949Z,8.30
2023-03-10T05:27:08.780Z,8.20
2023-03-10T05:29:39.185Z,8.90
2023-03-10T05:32:07.266Z,8.10
2023-03-10T05:34:35.759Z,8.00
2023-03-10T05:37:03.097Z,7.90
2023-03-10T05:39:30.516Z,7.80
2023-03-10T05:41:57.796Z,7.80
2023-03-10T05:44:25.341Z,6.60
2023-03-10T05:46:52.729Z,7.70
2023-03-10T05:49:20.656Z,7.60
2023-03-10T05:51:47.960Z,8.30
2023-03-10T05:54:16.864Z,7.50
2023-03-10T05:56:44.154Z,7.40
2023-03-10T05:59:11.502Z,7.40
2023-03-10T06:01:38.927Z,7.40
2023-03-10T06:04:06.691Z,7.30
2023-03-10T06:06:34.856Z,7.20
2023-03-10T06:09:02.610Z,7.10
2023-03-10T06:11:30.064Z,7.20
2023-03-10T06:13:58.579Z,8.20
2023-03-10T06:16:26.035Z,7.10
2023-03-10T06:18:55.512Z,7.10
2023-03-10T06:21:23.815Z,7.10
2023-03-10T06:23:51.544Z,7.00
2023-03-10T06:26:18.840Z,7.00
2023-03-10T06:28:47.126Z,7.00
2023-03-10T06:31:22.434Z,6.90
2023-03-10T06:33:50.095Z,6.80
2023-03-10T06:36:17.891Z,6.10
2023-03-10T06:38:45.499Z,6.60
2023-03-10T06:41:13.329Z,6.80
2023-03-10T06:43:40.946Z,6.80
2023-03-10T06:46:10.169Z,6.80
2023-03-10T06:48:38.952Z,6.70
2023-03-10T06:51:11.313Z,6.70
2023-03-10T06:53:39.005Z,6.60
2023-03-10T06:56:09.414Z,6.60
2023-03-10T06:58:37.725Z,6.60
2023-03-10T07:01:06.217Z,6.60
2023-03-10T07:03:34.339Z,6.60
2023-03-10T07:06:01.636Z,6.50
2023-03-10T07:08:30.079Z,6.50
2023-03-10T07:10:57.416Z,6.90
2023-03-10T07:13:24.934Z,6.40
2023-03-10T07:15:52.281Z,6.40
2023-03-10T07:18:19.957Z,6.40
2023-03-10T07:20:48.231Z,6.50
2023-03-10T07:23:16.307Z,6.40
2023-03-10T07:25:43.625Z,6.40
2023-03-10T07:28:11.897Z,6.40
2023-03-10T07:30:40.006Z,6.30
2023-03-10T07:33:07.367Z,5.80
2023-03-10T07:35:36.791Z,6.30
2023-03-10T07:38:05.203Z,6.30
2023-03-10T07:40:32.534Z,6.30
2023-03-10T07:43:00.121Z,5.90
2023-03-10T07:45:28.721Z,6.30
2023-03-10T07:47:56.122Z,6.30
2023-03-10T07:50:23.478Z,6.30
2023-03-10T07:52:50.838Z,6.50
2023-03-10T07:55:19.334Z,6.20
2023-03-10T07:57:46.711Z,6.20
2023-03-10T08:00:14.949Z,6.10
2023-03-10T08:02:42.598Z,6.00
2023-03-10T08:05:11.267Z,5.70
2023-03-10T08:07:39.167Z,5.90
2023-03-10T08:10:07.058Z,6.20
2023-03-10T08:12:34.482Z,5.60
2023-03-10T08:15:02.080Z,5.60
2023-03-10T08:17:33.537Z,5.50
2023-03-10T08:20:01.300Z,4.90
2023-03-10T08:22:28.814Z,5.40
2023-03-10T08:24:56.393Z,5.40
2023-03-10T08:27:23.768Z,5.40
2023-03-10T08:29:51.583Z,5.80
2023-03-10T08:32:19.929Z,5.20
2023-03-10T08:34:47.321Z,5.20
2023-03-10T08:37:14.879Z,6.20
2023-03-10T08:39:42.209Z,4.90
2023-03-10T08:42:13.808Z,4.80
2023-03-10T08:44:41.893Z,4.70
2023-03-10T08:47:09.430Z,4.70
2023-03-10T08:49:36.871Z,6.10
2023-03-10T08:52:04.598Z,4.70
2023-03-10T08:54:32.698Z,4.10
2023-03-10T08:57:00.957Z,4.50
2023-03-10T08:59:28.323Z,5.20
2023-03-10T09:01:55.714Z,4.70
2023-03-10T09:04:23.408Z,5.70
2023-03-10T09:06:51.105Z,4.20
2023-03-10T09:09:18.517Z,4.30
2023-03-10T09:11:46.182Z,4.30
2023-03-10T09:14:17.044Z,4.30
2023-03-10T09:16:44.992Z,4.20
2023-03-10T09:19:12.485Z,4.20
2023-03-10T09:21:40.045Z,4.90
2023-03-10T09:24:07.465Z,4.20
2023-03-10T09:26:34.798Z,4.20
2023-03-10T09:29:02.816Z,4.10
2023-03-10T09:31:33.271Z,4.10
2023-03-10T09:34:01.065Z,4.00
2023-03-10T09:36:29.804Z,4.00
2023-03-10T09:38:58.722Z,3.90
2023-03-10T09:41:34.639Z,3.90
2023-03-10T09:44:27.621Z,3.70
2023-03-10T09:47:14.312Z,3.90
2023-03-10T09:49:59.773Z,3.90
2023-03-10T09:52:30.040Z,3.90
2023-03-10T09:55:19.512Z,4.70
2023-03-10T09:57:52.408Z,3.90
2023-03-10T10:00:30.871Z,3.90
2023-03-10T10:03:14.777Z,3.90
2023-03-10T10:05:42.855Z,3.80
2023-03-10T10:08:49.028Z,3.70
2023-03-10T10:11:19.485Z,3.70
2023-03-10T10:13:47.140Z,4.10
2023-03-10T10:16:37.327Z,3.70
2023-03-10T10:19:20.115Z,3.70
2023-03-10T10:22:24.899Z,4.90
2023-03-10T10:25:13.154Z,3.60
2023-03-10T10:27:41.689Z,3.50
2023-03-10T10:30:39.701Z,3.50
2023-03-10T10:33:15.215Z,4.00
2023-03-10T10:38:37.048Z,3.60
2023-03-10T10:41:09.358Z,3.60
2023-03-10T10:43:42.650Z,3.70
2023-03-10T10:46:36.871Z,3.80
2023-03-10T10:49:27.033Z,4.20
2023-03-10T10:52:06.621Z,4.00
2023-03-10T10:54:55.757Z,4.00
2023-03-10T10:58:07.748Z,5.40
2023-03-10T11:00:38.795Z,4.10
2023-03-10T11:03:32.871Z,4.00
2023-03-10T11:06:03.002Z,4.10
2023-03-10T11:08:35.080Z,4.20
2023-03-10T11:11:19.838Z,4.20
2023-03-10T11:17:53.285Z,4.50
2023-03-10T11:20:41.023Z,4.60
2023-03-10T11:23:37.944Z,4.60
2023-03-10T11:26:24.744Z,4.50
2023-03-10T11:29:10.400Z,4.50
2023-03-10T11:32:07.847Z,4.50
2023-03-10T11:34:45.882Z,4.50
2023-03-10T11:37:32.181Z,4.60
2023-03-10T11:40:07.935Z,4.60
2023-03-10T11:43:02.575Z,4.70
2023-03-10T11:45:54.827Z,4.70
2023-03-10T11:48:53.277Z,4.60
2023-03-10T11:51:34.116Z,4.30
2023-03-10T11:54:09.132Z,4.30
2023-03-10T11:56:38.657Z,4.30
2023-03-10T11:59:18.686Z,4.40
2023-03-10T12:01:54.498Z,4.50
2023-03-10T12:04:37.941Z,4.40
2023-03-10T12:07:34.162Z,4.20
2023-03-10T12:10:12.444Z,4.80
2023-03-10T12:12:43.256Z,4.80
2023-03-10T12:15:22.439Z,4.80
2023-03-10T12:17:51.931Z,4.80
2023-03-10T12:20:21.559Z,6.30
2023-03-10T12:22:52.132Z,4.80
2023-03-10T12:25:29.847Z,4.80
2023-03-10T12:28:24.700Z,4.40
2023-03-10T12:30:56.484Z,5.60
2023-03-10T12:33:37.671Z,4.90
2023-03-10T12:36:32.850Z,4.90
2023-03-10T12:39:28.234Z,4.90
2023-03-10T12:42:00.666Z,5.00
2023-03-10T12:44:46.832Z,5.00
2023-03-10T12:47:32.071Z,5.00
2023-03-10T12:50:19.589Z,5.00
2023-03-10T12:53:13.973Z,5.60
2023-03-10T12:55:42.105Z,5.10
2023-03-10T12:58:14.556Z,5.20
2023-03-10T13:01:01.889Z,5.10
2023-03-10T13:04:04.880Z,5.10
2023-03-10T13:06:41.416Z,5.00
2023-03-10T13:09:14.745Z,5.10
2023-03-10T13:11:54.627Z,5.00
2023-03-10T13:14:35.377Z,5.00
2023-03-10T13:17:03.299Z,5.30
2023-03-10T13:19:33.112Z,5.00
2023-03-10T13:22:00.992Z,5.10
2023-03-10T13:24:35.645Z,5.10
2023-03-10T13:27:07.460Z,4.40
2023-03-10T13:29:34.828Z,5.10
2023-03-10T13:32:02.495Z,5.20
2023-03-10T13:34:32.275Z,5.30
2023-03-10T13:37:07.048Z,5.30
2023-03-10T13:39:34.454Z,5.30
2023-03-10T13:42:03.514Z,5.30
2023-03-10T13:44:39.595Z,5.20
2023-03-10T13:47:23.209Z,5.20
2023-03-10T13:49:55.005Z,5.30
2023-03-10T13:52:34.798Z,5.90
2023-03-10T13:55:24.240Z,5.30
2023-03-10T13:58:14.971Z,5.30
2023-03-10T14:00:47.827Z,5.40
2023-03-10T14:06:56.960Z,5.40
2023-03-10T14:09:53.944Z,5.40
2023-03-10T14:12:35.822Z,5.50
2023-03-10T14:16:02.344Z,5.50
2023-03-10T14:18:48.559Z,5.60
2023-03-10T14:21:33.314Z,5.50
2023-03-10T14:24:19.865Z,5.60
2023-03-10T14:26:47.328Z,5.70
2023-03-10T14:29:17.517Z,6.10
2023-03-10T14:31:54.079Z,5.60
2023-03-10T14:34:21.356Z,5.50
2023-03-10T14:36:48.626Z,5.50
2023-03-10T14:39:15.915Z,5.40
2023-03-10T14:41:44.650Z,5.60
2023-03-10T14:44:12.269Z,5.40
2023-03-10T14:46:39.906Z,5.40
2023-03-10T14:49:13.197Z,5.40
2023-03-10T14:51:40.770Z,5.00
2023-03-10T14:54:18.506Z,5.50
2023-03-10T14:56:47.166Z,5.50
2023-03-10T14:59:16.150Z,5.50
2023-03-10T15:01:43.773Z,5.50
2023-03-10T15:04:18.519Z,5.50
2023-03-10T15:06:45.955Z,5.50
2023-03-10T15:09:13.281Z,5.60
2023-03-10T15:11:41.561Z,5.50
2023-03-10T15:14:19.574Z,5.60
2023-03-10T15:17:25.306Z,6.50
2023-03-10T15:20:24.992Z,5.80
2023-03-10T15:22:52.443Z,5.80
2023-03-10T15:25:21.475Z,5.80
2023-03-10T15:27:50.625Z,5.80
2023-03-10T15:30:22.185Z,5.80
2023-03-10T15:32:49.938Z,5.90
2023-03-10T15:35:17.864Z,6.00
2023-03-10T15:37:45.274Z,5.90
2023-03-10T15:40:16.431Z,5.80
2023-03-10T15:42:45.082Z,5.90
2023-03-10T15:45:13.231Z,5.90
2023-03-10T15:47:41.127Z,5.80
2023-03-10T15:50:09.671Z,5.90
2023-03-10T15:52:37.073Z,6.00
2023-03-10T15:55:05.788Z,5.90
2023-03-10T15:57:33.350Z,5.80
2023-03-10T16:00:00.627Z,5.90
2023-03-10T16:02:27.912Z,6.00
2023-03-10T16:04:55.848Z,5.80
2023-03-10T16:07:24.638Z,5.80
2023-03-10T16:09:52.060Z,5.60
2023-03-10T16:12:19.711Z,5.80
2023-03-10T16:14:47.067Z,5.70
2023-03-10T16:17:14.486Z,5.80
2023-03-10T16:19:41.752Z,5.80
2023-03-10T16:22:10.435Z,5.90
2023-03-10T16:24:37.735Z,5.90
2023-03-10T16:27:05.513Z,5.90
2023-03-10T16:29:32.936Z,5.90
2023-03-10T16:32:00.568Z,6.00
2023-03-10T16:34:27.963Z,5.90
2023-03-10T16:36:55.805Z,5.90
2023-03-10T16:39:24.384Z,6.00
2023-03-10T16:41:52.840Z,5.90
2023-03-10T16:44:24.517Z,6.40
2023-03-10T16:46:52.224Z,5.90
2023-03-10T16:49:19.967Z,7.40
2023-03-10T16:51:48.244Z,6.00
2023-03-10T16:54:17.838Z,6.00
2023-03-10T16:56:47.916Z,5.90
2023-03-10T16:59:18.686Z,6.20
2023-03-10T17:01:46.877Z,5.90
2023-03-10T17:04:14.456Z,5.80
2023-03-10T17:06:42.214Z,6.00
2023-03-10T17:09:11.683Z,7.10
2023-03-10T17:11:41.500Z,5.80
2023-03-10T17:14:12.167Z,5.80
2023-03-10T17:16:39.769Z,5.90
2023-03-10T17:19:18.525Z,5.80
2023-03-10T17:21:49.203Z,5.40
2023-03-10T17:24:19.444Z,5.80
2023-03-10T17:26:47.261Z,5.80
2023-03-10T17:29:15.007Z,5.80
2023-03-10T17:31:44.017Z,5.70
2023-03-10T17:34:13.411Z,5.70
2023-03-10T17:36:40.841Z,5.70
2023-03-10T17:39:08.621Z,5.70
2023-03-10T17:41:36.416Z,5.70
2023-03-10T17:44:06.715Z,5.60
2023-03-10T17:46:34.180Z,5.70
2023-03-10T17:49:01.518Z,5.60
2023-03-10T17:51:31.061Z,6.70
2023-03-10T17:54:01.078Z,5.60
2023-03-10T17:56:29.277Z,5.50
2023-03-10T17:58:58.175Z,5.50
2023-03-10T18:01:28.153Z,5.50
2023-03-10T18:03:56.798Z,5.50
2023-03-10T18:06:26.990Z,5.50
2023-03-10T18:08:56.413Z,5.50
2023-03-10T18:11:25.343Z,5.60
2023-03-10T18:13:52.759Z,5.50
2023-03-10T18:16:32.359Z,5.40
2023-03-10T18:19:00.156Z,5.50
2023-03-10T18:21:28.186Z,5.40
2023-03-10T18:23:56.354Z,5.40
2023-03-10T18:26:27.561Z,5.40
2023-03-10T18:28:55.130Z,5.40
2023-03-10T18:31:25.935Z,5.30
2023-03-10T18:33:53.636Z,5.30
2023-03-10T18:36:21.289Z,5.30
2023-03-10T18:38:49.193Z,5.30
2023-03-10T18:41:22.514Z,5.30
2023-03-10T18:43:51.050Z,5.30
2023-03-10T18:46:18.599Z,5.30
2023-03-10T18:48:45.994Z,5.20
2023-03-10T18:51:13.785Z,5.30
2023-03-10T18:53:41.406Z,5.30
2023-03-10T18:56:10.166Z,5.40
2023-03-10T18:58:37.514Z,5.40
2023-03-10T19:01:11.028Z,5.30
2023-03-10T19:03:40.403Z,5.30
2023-03-10T19:06:09.558Z,5.40
2023-03-10T19:08:38.522Z,5.40
2023-03-10T19:11:07.165Z,5.40
2023-03-10T19:13:34.944Z,5.30
2023-03-10T19:16:06.946Z,5.10
2023-03-10T19:18:35.790Z,5.30
2023-03-10T19:21:03.867Z,5.30
2023-03-10T19:23:34.094Z,5.20
2023-03-10T19:26:02.219Z,6.10
2023-03-10T19:28:29.701Z,5.20
2023-03-10T19:30:57.128Z,5.20
2023-03-10T19:33:24.518Z,5.10
2023-03-10T19:36:01.087Z,5.10
2023-03-10T19:38:28.461Z,5.00
2023-03-10T19:40:55.832Z,5.10
2023-03-10T19:43:23.637Z,4.90
2023-03-10T19:45:50.902Z,4.70
2023-03-10T19:48:18.209Z,4.70
2023-03-10T19:50:46.586Z,4.60
2023-03-10T19:53:14.555Z,4.70
2023-03-10T19:55:43.513Z,4.60
2023-03-10T19:58:10.906Z,4.40
2023-03-10T20:00:38.507Z,4.30
2023-03-10T20:03:06.018Z,4.40
2023-03-10T20:05:33.678Z,4.40
2023-03-10T20:08:02.518Z,4.40
2023-03-10T20:10:29.847Z,4.50
2023-03-10T20:12:57.362Z,4.50
2023-03-10T20:15:24.848Z,4.60
2023-03-10T20:17:53.240Z,4.60
2023-03-10T20:20:21.323Z,4.60
2023-03-10T20:22:50.247Z,4.60
2023-03-10T20:25:20.746Z,4.60
2023-03-10T20:27:50.140Z,5.50
2023-03-10T20:30:27.913Z,4.50
2023-03-10T20:32:57.251Z,4.60
2023-03-10T20:35:28.041Z,4.60
2023-03-10T20:37:57.164Z,4.60
2023-03-10T20:40:25.480Z,4.60
2023-03-10T20:42:56.156Z,6.00
2023-03-10T20:45:24.428Z,4.60
2023-03-10T20:47:53.277Z,4.60
2023-03-10T20:50:20.999Z,4.60
2023-03-10T20:52:49.553Z,4.60
2023-03-10T20:55:25.536Z,4.60
2023-03-10T20:57:57.534Z,4.70
2023-03-10T21:00:26.478Z,4.60
2023-03-10T21:03:00.122Z,4.60
2023-03-10T21:05:28.451Z,4.60
2023-03-10T21:07:57.432Z,4.60
2023-03-10T21:10:28.575Z,4.50
2023-03-10T21:12:55.829Z,4.50
2023-03-10T21:15:24.325Z,4.80
2023-03-10T21:17:51.740Z,4.50
2023-03-10T21:20:22.369Z,4.60
2023-03-10T21:22:50.092Z,4.60
2023-03-10T21:25:24.700Z,4.60
2023-03-10T21:27:59.049Z,4.70
2023-03-10T21:30:28.949Z,4.60
2023-03-10T21:32:58.188Z,4.70
2023-03-10T21:35:26.972Z,4.60
2023-03-10T21:37:56.070Z,4.60
2023-03-10T21:40:24.459Z,4.60
2023-03-10T21:42:51.793Z,4.50
2023-03-10T21:45:21.491Z,4.50
2023-03-10T21:47:49.008Z,4.50
2023-03-10T21:50:17.270Z,4.40
2023-03-10T21:52:45.186Z,4.40
2023-03-10T21:55:24.597Z,4.20
2023-03-10T21:57:52.095Z,4.50
2023-03-10T22:00:23.091Z,4.10
2023-03-10T22:02:52.078Z,3.90
2023-03-10T22:05:19.630Z,3.80
2023-03-10T22:07:47.151Z,3.80
2023-03-10T22:10:16.560Z,4.00
2023-03-10T22:12:43.988Z,3.70
2023-03-10T22:15:16.480Z,3.60
2023-03-10T22:17:43.816Z,3.50
2023-03-10T22:20:24.149Z,3.50
2023-03-10T22:22:51.545Z,3.40
2023-03-10T22:25:19.878Z,3.60
2023-03-10T22:27:53.188Z,4.30
2023-03-10T22:30:25.485Z,3.40
2023-03-10T22:32:54.095Z,3.50
2023-03-10T22:35:22.068Z,3.60
2023-03-10T22:37:51.417Z,3.70
2023-03-10T22:40:21.595Z,3.90
2023-03-10T22:42:49.073Z,3.90
2023-03-10T22:45:20.091Z,4.00
2023-03-10T22:47:48.093Z,4.00
2023-03-10T22:50:29.920Z,4.10
2023-03-10T22:52:58.634Z,4.20
2023-03-10T22:55:26.114Z,4.20
2023-03-10T22:57:53.750Z,4.20
2023-03-10T23:00:22.893Z,4.20
2023-03-10T23:02:52.333Z,5.20
2023-03-10T23:05:20.891Z,4.20
2023-03-10T23:07:49.059Z,4.10
2023-03-10T23:10:28.720Z,4.10
2023-03-10T23:12:58.118Z,4.10
2023-03-10T23:15:28.020Z,3.80
2023-03-10T23:17:56.700Z,4.10
2023-03-10T23:20:28.099Z,4.10
2023-03-10T23:22:57.849Z,4.10
2023-03-10T23:25:29.968Z,4.40
2023-03-10T23:27:58.277Z,4.10
2023-03-10T23:30:26.637Z,4.20
2023-03-10T23:32:54.401Z,4.10
2023-03-10T23:35:25.734Z,4.00
2023-03-10T23:37:53.202Z,4.00
2023-03-10T23:40:23.535Z,4.00
2023-03-10T23:42:50.911Z,3.90
2023-03-10T23:45:20.737Z,3.90
2023-03-10T23:47:50.801Z,3.90
2023-03-10T23:50:22.323Z,3.50
2023-03-10T23:52:50.643Z,3.80
2023-03-10T23:55:24.974Z,3.80
2023-03-10T23:57:53.077Z,3.70
